Time;durP1;ratioP1;P1;durP2;ratioP2;P2;SDS_P1;SDS_P2;PMS_P1;PMS_P2;Temp;Humidity;BMP_temperature;BMP_pressure;BME280_temperature;BME280_humidity;BME280_pressure;Samples;Min_cycle;Max_cycle;Signal;HPM_P1;HPM_P2
2021/03/17 00:01:26;;;;;;;11.27;9.90;;;;;;;;;;4937031;29;20544;-42
2021/03/17 00:03:51;;;;;;;12.93;10.13;;;;;;;;;;4936308;29;20039;-47
2021/03/17 00:06:16;;;;;;;13.75;10.23;;;;;;;;;;4936463;29;20099;-46
2021/03/17 00:08:42;;;;;;;5.93;4.00;;;;;;;;;;4937738;29;20036;-43
2021/03/17 00:11:07;;;;;;;7.28;4.82;;;;;;;;;;4938414;29;20039;-42
2021/03/17 00:13:32;;;;;;;11.63;7.05;;;;;;;;;;4936000;29;20047;-45
2021/03/17 00:15:59;;;;;;;17.63;8.73;;;;;;;;;;4937300;29;20036;-44
2021/03/17 00:18:25;;;;;;;10.95;6.72;;;;;;;;;;4937037;29;20023;-43
2021/03/17 00:20:50;;;;;;;14.20;7.43;;;;;;;;;;4936581;29;20042;-46
2021/03/17 00:23:18;;;;;;;8.98;5.47;;;;;;;;;;4945431;28;20041;-45
2021/03/17 00:25:43;;;;;;;8.98;6.95;;;;;;;;;;4936505;29;20034;-43
2021/03/17 00:28:09;;;;;;;9.32;6.85;;;;;;;;;;4920485;29;20035;-45
2021/03/17 00:30:36;;;;;;;7.50;5.50;;;;;;;;;;4940437;29;20122;-45
2021/03/17 00:33:02;;;;;;;9.27;6.15;;;;;;;;;;4941002;29;20042;-44
2021/03/17 00:35:28;;;;;;;12.25;5.55;;;;;;;;;;4940552;29;20458;-44
2021/03/17 00:37:53;;;;;;;15.77;6.18;;;;;;;;;;4939570;29;20079;-43
2021/03/17 00:40:19;;;;;;;6.15;4.38;;;;;;;;;;4939286;29;20036;-48
2021/03/17 00:42:44;;;;;;;7.82;5.88;;;;;;;;;;4941129;29;20097;-43
2021/03/17 00:45:10;;;;;;;6.95;5.38;;;;;;;;;;4942080;29;20077;-46
2021/03/17 00:47:36;;;;;;;12.88;8.82;;;;;;;;;;4939508;29;20040;-42
2021/03/17 00:50:02;;;;;;;12.88;8.13;;;;;;;;;;4943402;28;20031;-47
2021/03/17 00:52:27;;;;;;;13.52;7.38;;;;;;;;;;4942365;28;20043;-46
2021/03/17 00:54:52;;;;;;;8.65;6.95;;;;;;;;;;4941576;29;20038;-43
2021/03/17 00:57:18;;;;;;;11.57;8.82;;;;;;;;;;4945241;28;20033;-49
2021/03/17 00:59:43;;;;;;;17.00;8.25;;;;;;;;;;4941795;29;20192;-45
2021/03/17 01:02:08;;;;;;;9.82;7.55;;;;;;;;;;4942148;29;20039;-46
2021/03/17 01:04:34;;;;;;;22.17;9.75;;;;;;;;;;4940800;29;20043;-43
2021/03/17 01:06:59;;;;;;;13.02;9.07;;;;;;;;;;4943636;28;20023;-42
2021/03/17 01:09:25;;;;;;;10.90;7.10;;;;;;;;;;4925743;29;20106;-44
2021/03/17 01:11:50;;;;;;;12.13;6.63;;;;;;;;;;4943709;28;20363;-43
2021/03/17 01:14:16;;;;;;;14.57;5.82;;;;;;;;;;4941693;29;20028;-47
2021/03/17 01:16:41;;;;;;;10.63;6.10;;;;;;;;;;4943796;29;20351;-43
2021/03/17 01:19:06;;;;;;;10.70;5.72;;;;;;;;;;4943769;29;20451;-43
2021/03/17 01:21:32;;;;;;;12.07;8.60;;;;;;;;;;4942129;29;20389;-48
2021/03/17 01:23:57;;;;;;;8.13;6.60;;;;;;;;;;4941976;29;20363;-47
2021/03/17 01:26:22;;;;;;;10.15;7.63;;;;;;;;;;4939521;28;20817;-43
2021/03/17 01:28:48;;;;;;;9.48;7.03;;;;;;;;;;4942872;29;20054;-45
2021/03/17 01:31:13;;;;;;;7.85;5.78;;;;;;;;;;4945638;28;20028;-42
2021/03/17 01:33:38;;;;;;;6.82;5.95;;;;;;;;;;4942592;29;20050;-43
2021/03/17 01:36:04;;;;;;;10.50;6.43;;;;;;;;;;4941770;29;20422;-44
2021/03/17 01:38:30;;;;;;;8.57;5.97;;;;;;;;;;4941038;29;20136;-43
2021/03/17 01:40:56;;;;;;;13.35;7.25;;;;;;;;;;4943264;29;20031;-44
2021/03/17 01:43:23;;;;;;;11.43;6.88;;;;;;;;;;4943151;29;20493;-47
2021/03/17 01:45:48;;;;;;;8.90;4.60;;;;;;;;;;4941354;29;20482;-46
2021/03/17 01:48:14;;;;;;;7.25;4.05;;;;;;;;;;4940407;29;20027;-49
2021/03/17 01:50:41;;;;;;;5.15;3.58;;;;;;;;;;4942686;29;20036;-47
2021/03/17 01:53:27;;;;;;;14.25;4.38;;;;;;;;;;4942884;29;20430;-45
2021/03/17 01:55:52;;;;;;;4.82;3.17;;;;;;;;;;4940682;29;20061;-45
2021/03/17 01:58:18;;;;;;;9.02;3.40;;;;;;;;;;4940374;29;20028;-45
2021/03/17 02:00:44;;;;;;;4.97;4.07;;;;;;;;;;4942907;29;20039;-45
2021/03/17 02:03:09;;;;;;;8.52;5.78;;;;;;;;;;4943245;29;20442;-43
2021/03/17 02:05:37;;;;;;;8.75;7.85;;;;;;;;;;4940762;29;20486;-47
2021/03/17 02:08:04;;;;;;;10.57;7.53;;;;;;;;;;4926168;29;20028;-48
2021/03/17 02:10:30;;;;;;;7.05;5.53;;;;;;;;;;4940849;29;20046;-47
2021/03/17 02:13:07;;;;;;;13.10;5.47;;;;;;;;;;4942915;29;20110;-43
2021/03/17 02:15:47;;;;;;;8.73;4.78;;;;;;;;;;4940515;29;20028;-50
2021/03/17 02:18:30;;;;;;;8.18;5.00;;;;;;;;;;4942829;29;20078;-47
2021/03/17 02:21:08;;;;;;;9.23;5.78;;;;;;;;;;4940485;29;20028;-47
2021/03/17 02:23:53;;;;;;;7.60;5.82;;;;;;;;;;4946949;28;20028;-43
2021/03/17 02:26:38;;;;;;;9.05;5.68;;;;;;;;;;4928340;29;20051;-48
2021/03/17 02:29:34;;;;;;;6.32;4.28;;;;;;;;;;4939663;29;20133;-46
2021/03/17 02:32:16;;;;;;;7.05;3.90;;;;;;;;;;4944336;28;20047;-46
2021/03/17 02:34:43;;;;;;;7.63;4.63;;;;;;;;;;4942429;29;20032;-43
2021/03/17 02:37:12;;;;;;;9.40;5.32;;;;;;;;;;4942698;29;20042;-49
2021/03/17 02:39:43;;;;;;;10.65;6.10;;;;;;;;;;4951718;28;20490;-47
2021/03/17 02:42:19;;;;;;;11.43;7.15;;;;;;;;;;4942712;29;20069;-45
2021/03/17 02:44:50;;;;;;;9.60;5.40;;;;;;;;;;4942480;29;20031;-45
2021/03/17 02:47:16;;;;;;;16.00;5.30;;;;;;;;;;4941798;29;20616;-49
2021/03/17 02:49:42;;;;;;;8.63;7.82;;;;;;;;;;4944296;28;20880;-44
2021/03/17 02:52:09;;;;;;;9.98;6.82;;;;;;;;;;4940289;28;20027;-44
2021/03/17 02:54:34;;;;;;;12.50;7.15;;;;;;;;;;4941158;29;20043;-43
2021/03/17 02:57:02;;;;;;;5.90;4.43;;;;;;;;;;4942277;29;20434;-44
2021/03/17 02:59:28;;;;;;;9.18;4.68;;;;;;;;;;4940772;29;20066;-46
2021/03/17 03:01:54;;;;;;;8.40;4.53;;;;;;;;;;4941011;28;20043;-46
2021/03/17 03:04:20;;;;;;;9.82;6.43;;;;;;;;;;4941772;29;20038;-46
2021/03/17 03:06:49;;;;;;;9.90;7.30;;;;;;;;;;4939433;29;20541;-45
2021/03/17 03:09:16;;;;;;;11.88;8.27;;;;;;;;;;4941015;29;20034;-42
2021/03/17 03:11:41;;;;;;;13.60;8.52;;;;;;;;;;4939273;29;20042;-44
2021/03/17 03:14:06;;;;;;;8.63;6.78;;;;;;;;;;4939863;29;20370;-43
2021/03/17 03:16:33;;;;;;;8.20;5.20;;;;;;;;;;4939592;29;20051;-45
2021/03/17 03:18:59;;;;;;;9.45;5.47;;;;;;;;;;4941779;29;20047;-43
2021/03/17 03:21:25;;;;;;;3.85;2.78;;;;;;;;;;4940365;29;20035;-47
2021/03/17 03:23:52;;;;;;;9.13;4.65;;;;;;;;;;4939799;29;20027;-44
2021/03/17 03:26:18;;;;;;;6.13;5.18;;;;;;;;;;4939308;29;20039;-46
2021/03/17 03:28:45;;;;;;;7.93;4.55;;;;;;;;;;4940659;29;20052;-47
2021/03/17 03:31:11;;;;;;;13.80;6.10;;;;;;;;;;4941967;29;20035;-50
2021/03/17 03:33:36;;;;;;;8.00;5.57;;;;;;;;;;4938931;28;20411;-44
2021/03/17 03:36:02;;;;;;;5.07;3.55;;;;;;;;;;4946063;28;20473;-44
2021/03/17 03:38:27;;;;;;;4.70;2.22;;;;;;;;;;4939124;29;20039;-46
2021/03/17 03:40:53;;;;;;;5.25;2.10;;;;;;;;;;4941541;29;20031;-43
2021/03/17 03:43:18;;;;;;;3.38;2.55;;;;;;;;;;4940947;29;20039;-44
2021/03/17 03:45:44;;;;;;;4.07;1.63;;;;;;;;;;4922668;29;20027;-45
2021/03/17 03:48:10;;;;;;;6.95;2.20;;;;;;;;;;4939191;29;20038;-47
2021/03/17 03:50:43;;;;;;;4.78;2.15;;;;;;;;;;4940319;29;20110;-43
2021/03/17 03:53:08;;;;;;;6.35;1.80;;;;;;;;;;4941513;29;20031;-43
2021/03/17 03:55:48;;;;;;;3.33;1.48;;;;;;;;;;4939092;29;20024;-44
2021/03/17 03:58:18;;;;;;;9.80;4.63;;;;;;;;;;4928923;29;20086;-44
2021/03/17 04:00:44;;;;;;;8.98;5.68;;;;;;;;;;4939635;29;20027;-43
2021/03/17 04:03:12;;;;;;;13.70;9.57;;;;;;;;;;4939792;28;20445;-43
2021/03/17 04:05:39;;;;;;;11.95;7.55;;;;;;;;;;4944485;29;20031;-46
2021/03/17 04:08:06;;;;;;;11.88;5.93;;;;;;;;;;4944865;29;20474;-44
2021/03/17 04:10:32;;;;;;;6.32;4.40;;;;;;;;;;4943179;29;20047;-45
2021/03/17 04:12:58;;;;;;;11.18;3.15;;;;;;;;;;4942308;29;20027;-44
2021/03/17 04:15:24;;;;;;;4.68;3.33;;;;;;;;;;4942232;29;20023;-45
2021/03/17 04:17:50;;;;;;;4.10;2.28;;;;;;;;;;4944373;29;20040;-45
2021/03/17 04:20:17;;;;;;;3.15;2.67;;;;;;;;;;4944902;29;20031;-47
2021/03/17 04:22:43;;;;;;;3.45;1.95;;;;;;;;;;4942120;29;20558;-47
2021/03/17 04:25:10;;;;;;;10.13;3.10;;;;;;;;;;4945158;29;20055;-48
2021/03/17 04:27:36;;;;;;;5.03;2.92;;;;;;;;;;4950525;28;20082;-43
2021/03/17 04:30:02;;;;;;;1.83;1.25;;;;;;;;;;4930792;29;20063;-46
2021/03/17 04:32:28;;;;;;;2.75;2.28;;;;;;;;;;4941233;28;20474;-47
2021/03/17 04:34:54;;;;;;;2.08;1.73;;;;;;;;;;4942455;29;20090;-43
2021/03/17 04:37:20;;;;;;;4.93;2.05;;;;;;;;;;4941257;29;20040;-46
2021/03/17 04:39:46;;;;;;;5.35;2.65;;;;;;;;;;4943964;29;20043;-49
2021/03/17 04:42:12;;;;;;;5.25;2.67;;;;;;;;;;4944213;29;20035;-48
2021/03/17 04:44:37;;;;;;;3.28;2.28;;;;;;;;;;4943049;29;20035;-47
2021/03/17 04:47:04;;;;;;;7.75;4.53;;;;;;;;;;4950434;28;20130;-44
2021/03/17 04:49:29;;;;;;;6.35;4.55;;;;;;;;;;4946175;28;20075;-48
2021/03/17 04:51:55;;;;;;;6.07;4.25;;;;;;;;;;4941782;29;20035;-44
2021/03/17 04:54:20;;;;;;;4.63;3.03;;;;;;;;;;4941179;29;20047;-46
2021/03/17 04:56:46;;;;;;;12.25;9.60;;;;;;;;;;4943928;29;20031;-46
2021/03/17 04:59:15;;;;;;;15.25;5.53;;;;;;;;;;4944357;29;20027;-46
2021/03/17 05:01:41;;;;;;;6.25;4.82;;;;;;;;;;4942436;28;20031;-45
2021/03/17 05:04:08;;;;;;;9.80;6.47;;;;;;;;;;4943494;29;20027;-44
2021/03/17 05:06:35;;;;;;;10.00;6.68;;;;;;;;;;4941321;29;20067;-45
2021/03/17 05:09:01;;;;;;;16.67;3.58;;;;;;;;;;4940852;29;20078;-43
2021/03/17 05:11:28;;;;;;;8.85;6.07;;;;;;;;;;4941231;29;20035;-43
2021/03/17 05:13:53;;;;;;;12.20;6.82;;;;;;;;;;4942185;28;20039;-43
2021/03/17 05:16:20;;;;;;;15.20;8.68;;;;;;;;;;4934522;29;20040;-45
2021/03/17 05:18:46;;;;;;;14.98;7.38;;;;;;;;;;4941859;29;20133;-46
2021/03/17 05:21:12;;;;;;;12.73;8.05;;;;;;;;;;4941009;29;20102;-48
2021/03/17 05:23:39;;;;;;;6.22;5.60;;;;;;;;;;4941966;29;20126;-44
2021/03/17 05:26:04;;;;;;;5.68;4.72;;;;;;;;;;4945109;28;20466;-43
2021/03/17 05:28:30;;;;;;;8.88;6.38;;;;;;;;;;4943788;28;20066;-45
2021/03/17 05:30:56;;;;;;;9.55;5.10;;;;;;;;;;4941180;29;20028;-46
2021/03/17 05:33:22;;;;;;;9.90;5.53;;;;;;;;;;4940762;28;20047;-45
2021/03/17 05:35:48;;;;;;;15.52;8.65;;;;;;;;;;4942449;29;20078;-46
2021/03/17 05:38:13;;;;;;;12.00;9.30;;;;;;;;;;4943046;29;20490;-45
2021/03/17 05:40:38;;;;;;;18.40;9.57;;;;;;;;;;4940312;29;20062;-45
2021/03/17 05:43:06;;;;;;;11.15;8.95;;;;;;;;;;4940406;29;20035;-46
2021/03/17 05:45:32;;;;;;;13.75;8.88;;;;;;;;;;4940939;29;20032;-46
2021/03/17 05:47:58;;;;;;;14.48;8.20;;;;;;;;;;4942758;29;20031;-43
2021/03/17 05:50:24;;;;;;;14.20;8.32;;;;;;;;;;4941770;29;20035;-43
2021/03/17 05:52:49;;;;;;;10.85;8.60;;;;;;;;;;4940609;29;20032;-44
2021/03/17 05:55:15;;;;;;;12.45;11.30;;;;;;;;;;4940454;29;20034;-43
2021/03/17 05:57:41;;;;;;;17.58;10.98;;;;;;;;;;4941284;28;20038;-45
2021/03/17 06:00:14;;;;;;;9.52;7.97;;;;;;;;;;4941851;29;20110;-44
2021/03/17 06:02:40;;;;;;;21.73;11.38;;;;;;;;;;4941741;29;20578;-44
2021/03/17 06:05:06;;;;;;;15.27;8.60;;;;;;;;;;4942979;29;20102;-43
2021/03/17 06:07:41;;;;;;;12.27;8.55;;;;;;;;;;4940617;29;20027;-47
2021/03/17 06:10:07;;;;;;;9.23;8.05;;;;;;;;;;4940463;29;20038;-45
2021/03/17 06:12:35;;;;;;;14.20;6.63;;;;;;;;;;4941291;29;20035;-49
2021/03/17 06:15:01;;;;;;;10.75;7.97;;;;;;;;;;4939892;28;20036;-47
2021/03/17 06:17:28;;;;;;;23.17;10.35;;;;;;;;;;4939962;29;20035;-50
2021/03/17 06:20:01;;;;;;;9.82;6.20;;;;;;;;;;4942833;29;20039;-46
2021/03/17 06:22:27;;;;;;;8.02;6.65;;;;;;;;;;4941416;29;20050;-43
2021/03/17 06:24:53;;;;;;;11.07;6.25;;;;;;;;;;4940298;29;20035;-48
2021/03/17 06:27:19;;;;;;;12.75;6.20;;;;;;;;;;4927729;29;20140;-49
2021/03/17 06:29:44;;;;;;;20.63;7.68;;;;;;;;;;4939700;29;20055;-46
2021/03/17 06:32:10;;;;;;;12.50;8.88;;;;;;;;;;4940264;29;20036;-45
2021/03/17 06:34:44;;;;;;;18.35;8.77;;;;;;;;;;4941313;29;20039;-43
2021/03/17 06:37:10;;;;;;;20.05;16.02;;;;;;;;;;4942041;29;20097;-48
2021/03/17 06:39:35;;;;;;;19.50;9.45;;;;;;;;;;4939371;29;20193;-47
2021/03/17 06:42:01;;;;;;;24.42;14.75;;;;;;;;;;4946345;28;20040;-47
2021/03/17 06:44:27;;;;;;;11.77;9.00;;;;;;;;;;4939900;28;20173;-48
2021/03/17 06:47:11;;;;;;;11.52;7.05;;;;;;;;;;4940154;29;20040;-46
2021/03/17 06:49:38;;;;;;;12.88;6.60;;;;;;;;;;4940759;29;20031;-43
2021/03/17 06:52:22;;;;;;;8.05;6.60;;;;;;;;;;4941986;29;20027;-45
2021/03/17 06:55:05;;;;;;;12.10;7.68;;;;;;;;;;4948313;28;20027;-45
2021/03/17 06:57:31;;;;;;;14.30;9.48;;;;;;;;;;4941232;29;20027;-48
2021/03/17 07:00:15;;;;;;;12.65;10.32;;;;;;;;;;4940298;29;20031;-47
2021/03/17 07:02:40;;;;;;;12.63;9.68;;;;;;;;;;4940821;28;20402;-51
2021/03/17 07:05:06;;;;;;;18.88;9.35;;;;;;;;;;4941737;29;20031;-43
2021/03/17 07:07:44;;;;;;;20.77;12.30;;;;;;;;;;4939964;29;20047;-44
2021/03/17 07:10:10;;;;;;;21.27;9.93;;;;;;;;;;4941932;29;20119;-47
2021/03/17 07:12:35;;;;;;;35.53;9.38;;;;;;;;;;4926441;29;20122;-43
2021/03/17 07:15:07;;;;;;;11.93;9.65;;;;;;;;;;4939968;29;20034;-47
2021/03/17 07:17:33;;;;;;;11.48;10.20;;;;;;;;;;4940018;29;20035;-45
2021/03/17 07:19:58;;;;;;;20.83;13.05;;;;;;;;;;4942093;29;20031;-46
2021/03/17 07:22:24;;;;;;;17.15;15.52;;;;;;;;;;4940815;29;20039;-45
2021/03/17 07:24:54;;;;;;;20.52;13.45;;;;;;;;;;4939184;28;20032;-48
2021/03/17 07:27:20;;;;;;;17.70;12.98;;;;;;;;;;4939466;29;20034;-45
2021/03/17 07:29:58;;;;;;;20.98;11.63;;;;;;;;;;4941102;29;20089;-46
2021/03/17 07:32:27;;;;;;;13.45;8.48;;;;;;;;;;4940320;29;20397;-46
2021/03/17 07:34:52;;;;;;;18.40;8.63;;;;;;;;;;4944455;28;20111;-47
2021/03/17 07:37:24;;;;;;;21.08;12.77;;;;;;;;;;4938199;29;20493;-46
2021/03/17 07:39:49;;;;;;;13.18;11.68;;;;;;;;;;4941862;29;20027;-44
2021/03/17 07:42:15;;;;;;;10.57;8.85;;;;;;;;;;4941741;29;20085;-47
2021/03/17 07:44:41;;;;;;;10.60;9.52;;;;;;;;;;4939039;29;20027;-47
2021/03/17 07:47:08;;;;;;;8.20;7.38;;;;;;;;;;4939538;29;20031;-47
2021/03/17 07:49:34;;;;;;;19.73;10.38;;;;;;;;;;4939576;29;20036;-48
2021/03/17 07:52:00;;;;;;;12.32;9.93;;;;;;;;;;4941252;29;20035;-47
2021/03/17 07:54:26;;;;;;;14.68;8.43;;;;;;;;;;4939685;28;20412;-43
2021/03/17 07:56:51;;;;;;;7.97;5.85;;;;;;;;;;4939601;29;20094;-47
2021/03/17 07:59:18;;;;;;;12.63;5.72;;;;;;;;;;4932024;28;20474;-49
2021/03/17 08:01:44;;;;;;;17.52;8.88;;;;;;;;;;4935502;28;20039;-45
2021/03/17 08:04:10;;;;;;;18.00;10.02;;;;;;;;;;4942473;28;20131;-46
2021/03/17 08:06:36;;;;;;;8.45;4.88;;;;;;;;;;4939947;28;20110;-44
2021/03/17 08:09:01;;;;;;;8.45;7.18;;;;;;;;;;4937118;28;20042;-47
2021/03/17 08:11:27;;;;;;;22.50;8.52;;;;;;;;;;4938419;28;20089;-44
2021/03/17 08:13:53;;;;;;;16.33;11.82;;;;;;;;;;4941247;28;20066;-47
2021/03/17 08:16:20;;;;;;;19.42;11.90;;;;;;;;;;4938281;28;20042;-46
2021/03/17 08:18:46;;;;;;;20.88;13.52;;;;;;;;;;4940266;29;20042;-47
2021/03/17 08:21:12;;;;;;;18.85;13.02;;;;;;;;;;4946344;29;20031;-44
2021/03/17 08:23:53;;;;;;;14.57;12.35;;;;;;;;;;4946043;28;20037;-46
2021/03/17 08:26:21;;;;;;;24.27;14.27;;;;;;;;;;4947030;29;20118;-49
2021/03/17 08:28:46;;;;;;;15.95;14.20;;;;;;;;;;4947716;29;20051;-48
2021/03/17 08:31:32;;;;;;;26.20;19.63;;;;;;;;;;4947906;29;20452;-48
2021/03/17 08:33:58;;;;;;;30.95;25.67;;;;;;;;;;4946238;29;20079;-44
2021/03/17 08:36:39;;;;;;;54.83;35.97;;;;;;;;;;4948527;28;20024;-43
2021/03/17 08:39:05;;;;;;;;;;;;;;;;;;4947357;28;20035;-42
2021/03/17 08:41:37;;;;;;;29.67;25.98;;;;;;;;;;4947695;28;20365;-47
2021/03/17 08:44:13;;;;;;;37.78;27.35;;;;;;;;;;4947184;29;20030;-46
2021/03/17 08:46:39;;;;;;;27.40;17.08;;;;;;;;;;4942319;29;20081;-45
2021/03/17 08:49:06;;;;;;;17.17;12.45;;;;;;;;;;4949563;28;20103;-50
2021/03/17 08:51:46;;;;;;;14.75;8.70;;;;;;;;;;4950991;29;20547;-47
2021/03/17 08:54:33;;;;;;;7.50;5.65;;;;;;;;;;4950423;28;20047;-45
2021/03/17 08:57:02;;;;;;;11.13;4.93;;;;;;;;;;4944753;29;20027;-45
2021/03/17 08:59:46;;;;;;;5.82;4.15;;;;;;;;;;4942705;28;20492;-44
2021/03/17 09:02:18;;;;;;;10.75;3.65;;;;;;;;;;4939572;28;20074;-47
2021/03/17 09:04:47;;;;;;;6.88;3.50;;;;;;;;;;4941525;28;20031;-47
2021/03/17 09:07:13;;;;;;;12.18;3.08;;;;;;;;;;4932618;29;20672;-47
2021/03/17 09:09:45;;;;;;;3.20;2.85;;;;;;;;;;4938386;29;20032;-44
2021/03/17 09:12:11;;;;;;;4.28;3.03;;;;;;;;;;4940757;28;20042;-45
2021/03/17 09:14:38;;;;;;;11.05;3.88;;;;;;;;;;4938747;29;20035;-46
2021/03/17 09:17:11;;;;;;;9.70;4.18;;;;;;;;;;4942477;28;20035;-50
2021/03/17 09:20:15;;;;;;;5.75;3.17;;;;;;;;;;4940065;28;20038;-45
2021/03/17 09:22:40;;;;;;;4.55;1.95;;;;;;;;;;4873011;29;20072;-46
2021/03/17 09:25:23;;;;;;;9.55;3.67;;;;;;;;;;4872345;29;20112;-46
2021/03/17 09:27:55;;;;;;;12.70;3.45;;;;;;;;;;4909638;29;20486;-47
2021/03/17 09:30:23;;;;;;;13.00;3.53;;;;;;;;;;4939282;28;20499;-45
2021/03/17 09:32:48;;;;;;;5.28;3.22;;;;;;;;;;4938297;29;20510;-46
2021/03/17 09:35:14;;;;;;;11.15;3.78;;;;;;;;;;4937141;28;20056;-45
2021/03/17 09:37:40;;;;;;;5.63;2.83;;;;;;;;;;4947832;28;20047;-46
2021/03/17 09:40:06;;;;;;;9.30;2.33;;;;;;;;;;4941219;29;20031;-46
2021/03/17 09:42:38;;;;;;;4.97;2.47;;;;;;;;;;4948009;29;20037;-47
2021/03/17 09:45:07;;;;;;;5.47;3.35;;;;;;;;;;4946661;29;20130;-47
2021/03/17 09:47:33;;;;;;;3.17;1.40;;;;;;;;;;4937866;29;20094;-45
2021/03/17 09:49:58;;;;;;;7.35;3.35;;;;;;;;;;4943570;28;20419;-47
2021/03/17 09:52:24;;;;;;;7.65;2.47;;;;;;;;;;4944445;29;20046;-47
2021/03/17 09:54:49;;;;;;;6.22;2.83;;;;;;;;;;4943230;29;20051;-47
2021/03/17 09:57:15;;;;;;;17.98;5.10;;;;;;;;;;4943161;28;20031;-45
2021/03/17 09:59:41;;;;;;;6.80;2.40;;;;;;;;;;4940795;28;20035;-44
2021/03/17 10:02:27;;;;;;;5.70;2.50;;;;;;;;;;4949926;28;20191;-46
2021/03/17 10:04:53;;;;;;;7.13;2.92;;;;;;;;;;4951865;28;20430;-43
2021/03/17 10:07:20;;;;;;;16.23;3.05;;;;;;;;;;4949819;28;20539;-44
2021/03/17 10:09:46;;;;;;;4.68;2.25;;;;;;;;;;4950390;28;20134;-45
2021/03/17 10:12:11;;;;;;;4.03;2.15;;;;;;;;;;4953409;28;20567;-42
2021/03/17 10:14:39;;;;;;;8.20;3.30;;;;;;;;;;4954477;28;20077;-48
2021/03/17 10:17:05;;;;;;;9.25;3.20;;;;;;;;;;4959630;28;20098;-45
2021/03/17 10:19:31;;;;;;;7.30;2.80;;;;;;;;;;4959703;28;20492;-47
2021/03/17 10:21:57;;;;;;;3.15;1.90;;;;;;;;;;4963692;28;20035;-46
2021/03/17 10:24:46;;;;;;;4.70;2.63;;;;;;;;;;4961470;28;20078;-46
2021/03/17 10:27:14;;;;;;;10.32;2.83;;;;;;;;;;4930998;28;20082;-46
2021/03/17 10:29:39;;;;;;;6.43;3.85;;;;;;;;;;4964985;28;20082;-48
2021/03/17 10:32:05;;;;;;;10.73;2.20;;;;;;;;;;4970212;28;20540;-45
2021/03/17 10:34:31;;;;;;;8.07;2.13;;;;;;;;;;4945761;28;20050;-49
2021/03/17 10:36:56;;;;;;;9.60;3.65;;;;;;;;;;4968037;28;20027;-43
2021/03/17 10:39:26;;;;;;;9.88;4.68;;;;;;;;;;4966159;28;20065;-47
2021/03/17 10:41:51;;;;;;;1.42;1.13;;;;;;;;;;4963708;28;20469;-45
2021/03/17 10:44:18;;;;;;;5.68;2.22;;;;;;;;;;4968730;28;20026;-46
2021/03/17 10:47:02;;;;;;;9.18;3.10;;;;;;;;;;4952083;28;20027;-49
2021/03/17 10:49:28;;;;;;;6.68;3.53;;;;;;;;;;4970218;28;20037;-45
2021/03/17 10:51:54;;;;;;;3.45;2.42;;;;;;;;;;4965637;28;20031;-43
2021/03/17 10:54:26;;;;;;;3.97;2.53;;;;;;;;;;4962778;28;20367;-47
2021/03/17 10:56:51;;;;;;;3.20;2.13;;;;;;;;;;4970932;28;20026;-46
2021/03/17 10:59:34;;;;;;;3.78;2.15;;;;;;;;;;4971179;28;20331;-46
2021/03/17 11:02:22;;;;;;;19.25;5.03;;;;;;;;;;4971734;28;20093;-47
2021/03/17 11:05:04;;;;;;;2.90;2.10;;;;;;;;;;4963098;28;20042;-46
2021/03/17 11:07:48;;;;;;;7.35;2.75;;;;;;;;;;4971189;28;20031;-43
2021/03/17 11:10:28;;;;;;;4.68;2.45;;;;;;;;;;4971065;28;20061;-46
2021/03/17 11:12:54;;;;;;;13.93;4.37;;;;;;;;;;4970164;28;20111;-42
2021/03/17 11:15:27;;;;;;;2.55;1.83;;;;;;;;;;4953539;28;20062;-42
2021/03/17 11:17:53;;;;;;;10.18;4.65;;;;;;;;;;4970716;28;20082;-45
2021/03/17 11:20:18;;;;;;;5.97;2.00;;;;;;;;;;4970731;28;20050;-44
2021/03/17 11:22:44;;;;;;;9.02;2.13;;;;;;;;;;4970999;28;20804;-45
2021/03/17 11:25:11;;;;;;;4.00;1.95;;;;;;;;;;4970657;28;20460;-46
2021/03/17 11:27:36;;;;;;;3.35;2.63;;;;;;;;;;4970875;28;20130;-49
2021/03/17 11:30:02;;;;;;;8.68;2.00;;;;;;;;;;4970321;28;20150;-43
2021/03/17 11:32:31;;;;;;;6.90;3.33;;;;;;;;;;4970464;28;20034;-43
2021/03/17 11:34:56;;;;;;;4.70;2.65;;;;;;;;;;4971376;28;20034;-46
2021/03/17 11:37:21;;;;;;;6.10;2.38;;;;;;;;;;4970202;28;20086;-47
2021/03/17 11:39:48;;;;;;;5.18;4.53;;;;;;;;;;4966453;28;20031;-43
2021/03/17 11:42:14;;;;;;;3.38;1.98;;;;;;;;;;4970880;28;20038;-46
2021/03/17 11:44:39;;;;;;;4.78;1.95;;;;;;;;;;4970653;28;20031;-49
2021/03/17 11:47:05;;;;;;;5.70;2.90;;;;;;;;;;4970498;28;20040;-44
2021/03/17 11:49:30;;;;;;;4.70;2.88;;;;;;;;;;4970639;28;20125;-46
2021/03/17 11:51:55;;;;;;;3.97;1.98;;;;;;;;;;4970688;28;20461;-45
2021/03/17 11:54:21;;;;;;;3.47;2.33;;;;;;;;;;4969123;28;20053;-44
2021/03/17 11:56:46;;;;;;;5.70;3.58;;;;;;;;;;4953117;28;20035;-43
2021/03/17 11:59:11;;;;;;;2.97;2.55;;;;;;;;;;4970776;28;20094;-47
2021/03/17 12:01:37;;;;;;;5.07;3.67;;;;;;;;;;4970664;28;20024;-44
2021/03/17 12:04:02;;;;;;;5.07;3.60;;;;;;;;;;4970498;28;20106;-47
2021/03/17 12:06:28;;;;;;;5.28;2.92;;;;;;;;;;4970893;28;20030;-45
2021/03/17 12:08:53;;;;;;;5.65;3.03;;;;;;;;;;4970388;28;20039;-43
2021/03/17 12:11:19;;;;;;;7.35;3.05;;;;;;;;;;4968458;28;20033;-46
2021/03/17 12:13:45;;;;;;;5.68;2.28;;;;;;;;;;4970214;28;20097;-47
2021/03/17 12:16:10;;;;;;;5.25;2.58;;;;;;;;;;4970635;28;20113;-42
2021/03/17 12:18:35;;;;;;;2.95;1.95;;;;;;;;;;4969915;28;20027;-46
2021/03/17 12:21:01;;;;;;;2.63;1.63;;;;;;;;;;4970406;28;20134;-49
2021/03/17 12:23:26;;;;;;;14.93;1.92;;;;;;;;;;4969629;28;20454;-46
2021/03/17 12:25:52;;;;;;;2.72;1.35;;;;;;;;;;4963675;28;20454;-42
2021/03/17 12:28:17;;;;;;;4.05;1.75;;;;;;;;;;4973661;28;20031;-44
2021/03/17 12:30:43;;;;;;;3.55;2.00;;;;;;;;;;4974263;28;20389;-47
2021/03/17 12:33:08;;;;;;;13.13;2.72;;;;;;;;;;4968717;28;20027;-45
2021/03/17 12:35:34;;;;;;;3.53;1.73;;;;;;;;;;4972933;28;20023;-44
2021/03/17 12:37:59;;;;;;;7.40;2.78;;;;;;;;;;4972012;28;20026;-46
2021/03/17 12:40:26;;;;;;;7.45;1.70;;;;;;;;;;4951337;28;20438;-46
2021/03/17 12:42:52;;;;;;;5.82;1.90;;;;;;;;;;4967250;28;20038;-45
2021/03/17 12:45:20;;;;;;;1.70;1.05;;;;;;;;;;4972304;28;20378;-49
2021/03/17 12:47:45;;;;;;;6.50;2.20;;;;;;;;;;4969685;28;20539;-46
2021/03/17 12:50:12;;;;;;;4.20;1.90;;;;;;;;;;4968227;28;20039;-45
2021/03/17 12:52:37;;;;;;;3.88;1.98;;;;;;;;;;4973498;28;20454;-48
2021/03/17 12:55:03;;;;;;;14.18;2.47;;;;;;;;;;4973961;28;20062;-47
2021/03/17 12:57:30;;;;;;;3.13;1.95;;;;;;;;;;4973473;28;20049;-45
2021/03/17 12:59:56;;;;;;;6.22;2.38;;;;;;;;;;4974004;28;20035;-44
2021/03/17 13:02:22;;;;;;;2.08;1.50;;;;;;;;;;4973338;28;20062;-48
2021/03/17 13:04:47;;;;;;;3.65;0.98;;;;;;;;;;4973430;28;20031;-45
2021/03/17 13:07:12;;;;;;;2.55;1.83;;;;;;;;;;4973050;28;20027;-50
2021/03/17 13:09:38;;;;;;;5.60;1.63;;;;;;;;;;4969784;28;20435;-44
2021/03/17 13:12:03;;;;;;;5.80;1.88;;;;;;;;;;4972793;28;20115;-47
2021/03/17 13:14:29;;;;;;;4.97;2.35;;;;;;;;;;4973055;28;20097;-47
2021/03/17 13:16:54;;;;;;;3.60;2.00;;;;;;;;;;4972813;28;20031;-46
2021/03/17 13:19:20;;;;;;;6.57;1.88;;;;;;;;;;4973011;28;20093;-47
2021/03/17 13:21:47;;;;;;;8.27;1.92;;;;;;;;;;4972981;28;20023;-46
2021/03/17 13:24:13;;;;;;;7.50;1.73;;;;;;;;;;4973264;28;20038;-45
2021/03/17 13:26:38;;;;;;;7.13;2.30;;;;;;;;;;4972957;28;20026;-44
2021/03/17 13:29:04;;;;;;;6.97;1.88;;;;;;;;;;4973121;28;20057;-44
2021/03/17 13:31:30;;;;;;;6.20;2.13;;;;;;;;;;4970193;28;20054;-43
2021/03/17 13:33:55;;;;;;;3.22;1.88;;;;;;;;;;4963851;28;20078;-42
2021/03/17 13:36:22;;;;;;;4.20;2.63;;;;;;;;;;4971991;28;20363;-45
2021/03/17 13:38:47;;;;;;;3.53;1.83;;;;;;;;;;4966583;28;20030;-46
2021/03/17 13:41:12;;;;;;;4.85;1.95;;;;;;;;;;4972754;28;20034;-47
2021/03/17 13:43:38;;;;;;;8.23;2.38;;;;;;;;;;4972728;28;20081;-45
2021/03/17 13:46:03;;;;;;;8.02;2.17;;;;;;;;;;4970977;28;20472;-44
2021/03/17 13:48:29;;;;;;;2.85;1.65;;;;;;;;;;4972004;28;20466;-46
2021/03/17 13:50:54;;;;;;;5.13;2.50;;;;;;;;;;4970666;28;20109;-43
2021/03/17 13:53:19;;;;;;;4.75;1.88;;;;;;;;;;4972530;28;20050;-42
2021/03/17 13:55:45;;;;;;;2.60;1.27;;;;;;;;;;4972238;28;20462;-44
2021/03/17 13:58:11;;;;;;;5.63;2.95;;;;;;;;;;4965489;28;20141;-43
2021/03/17 14:00:36;;;;;;;10.40;1.88;;;;;;;;;;4972210;28;20034;-43
2021/03/17 14:03:02;;;;;;;4.55;1.02;;;;;;;;;;4972026;28;20034;-44
2021/03/17 14:05:27;;;;;;;2.13;1.27;;;;;;;;;;4969597;28;20019;-45
2021/03/17 14:07:53;;;;;;;4.22;1.48;;;;;;;;;;4971927;28;20022;-45
2021/03/17 14:10:20;;;;;;;10.48;1.63;;;;;;;;;;4972124;28;20484;-45
2021/03/17 14:12:46;;;;;;;5.32;1.90;;;;;;;;;;4972108;28;20030;-47
2021/03/17 14:15:13;;;;;;;1.95;1.13;;;;;;;;;;4972466;28;20589;-43
2021/03/17 14:17:38;;;;;;;4.72;1.73;;;;;;;;;;4971405;28;20104;-44
2021/03/17 14:20:07;;;;;;;5.13;2.13;;;;;;;;;;4972098;28;20115;-45
2021/03/17 14:22:32;;;;;;;3.03;1.63;;;;;;;;;;4965124;28;20038;-44
2021/03/17 14:24:58;;;;;;;7.70;2.65;;;;;;;;;;4972057;28;20457;-45
2021/03/17 14:27:24;;;;;;;12.98;3.50;;;;;;;;;;4972087;28;20409;-46
2021/03/17 14:29:49;;;;;;;8.98;4.40;;;;;;;;;;4971681;28;20093;-45
2021/03/17 14:32:14;;;;;;;6.95;2.63;;;;;;;;;;4970050;28;20077;-42
2021/03/17 14:34:40;;;;;;;2.47;2.17;;;;;;;;;;4971661;28;20046;-42
2021/03/17 14:37:05;;;;;;;1.88;1.42;;;;;;;;;;4971315;28;20038;-45
2021/03/17 14:39:31;;;;;;;4.97;1.85;;;;;;;;;;4971947;28;20038;-44